Terminal Aerodrome Forecast
Issued by NWS

Current Version | Previous Version | Text Only | Print | Product List | Glossary Off
Versions: 1 2 3 4 5 6 7 8 9 10 11 12 13 14 15 16 17

173
FTUS41 KPBZ 152119 AAB
TAFHLG
TAF AMD
KHLG 152119Z 1521/1618 21013G25KT P6SM BKN035
      TEMPO 1522/1523 26020G35KT 1SM SHRA OVC025
     FM152300 28015G25KT P6SM VCSH BKN025
     FM160200 30010KT P6SM BKN025
     FM161200 31008KT P6SM SCT035=

USA.gov is the U.S. government's official web portal to all federal, state and local government web resources and services.